sensor_id;sensor_type;location;lat;lon;timestamp;P1;durP1;ratioP1;P2;durP2;ratioP2
72053;SDS011;59918;51.280;7.950;2024-01-16T00:00:51;10.50;;;5.95;;
72053;SDS011;59918;51.280;7.950;2024-01-16T00:03:16;12.80;;;5.90;;
72053;SDS011;59918;51.280;7.950;2024-01-16T00:05:41;10.05;;;6.85;;
72053;SDS011;59918;51.280;7.950;2024-01-16T00:08:07;8.40;;;5.55;;
72053;SDS011;59918;51.280;7.950;2024-01-16T00:10:32;11.65;;;7.43;;
72053;SDS011;59918;51.280;7.950;2024-01-16T00:12:57;16.08;;;7.57;;
72053;SDS011;59918;51.280;7.950;2024-01-16T00:15:22;12.20;;;7.05;;
72053;SDS011;59918;51.280;7.950;2024-01-16T00:17:48;8.65;;;7.35;;
72053;SDS011;59918;51.280;7.950;2024-01-16T00:20:13;8.90;;;6.65;;
72053;SDS011;59918;51.280;7.950;2024-01-16T00:22:38;13.52;;;6.60;;
72053;SDS011;59918;51.280;7.950;2024-01-16T00:25:04;14.27;;;6.35;;
72053;SDS011;59918;51.280;7.950;2024-01-16T00:27:29;13.23;;;6.55;;
72053;SDS011;59918;51.280;7.950;2024-01-16T00:29:55;9.85;;;5.30;;
72053;SDS011;59918;51.280;7.950;2024-01-16T00:32:20;10.98;;;5.97;;
72053;SDS011;59918;51.280;7.950;2024-01-16T00:34:45;11.70;;;6.22;;
72053;SDS011;59918;51.280;7.950;2024-01-16T00:37:10;18.13;;;6.82;;
72053;SDS011;59918;51.280;7.950;2024-01-16T00:39:38;10.95;;;6.97;;
72053;SDS011;59918;51.280;7.950;2024-01-16T00:42:03;12.70;;;7.00;;
72053;SDS011;59918;51.280;7.950;2024-01-16T00:44:29;10.45;;;6.30;;
72053;SDS011;59918;51.280;7.950;2024-01-16T00:46:54;11.48;;;6.43;;
72053;SDS011;59918;51.280;7.950;2024-01-16T00:49:19;16.58;;;6.78;;
72053;SDS011;59918;51.280;7.950;2024-01-16T00:51:44;14.48;;;7.60;;
72053;SDS011;59918;51.280;7.950;2024-01-16T00:54:10;13.80;;;7.53;;
72053;SDS011;59918;51.280;7.950;2024-01-16T00:56:35;11.68;;;6.82;;
72053;SDS011;59918;51.280;7.950;2024-01-16T00:59:00;18.13;;;8.65;;
72053;SDS011;59918;51.280;7.950;2024-01-16T01:01:26;12.05;;;7.03;;
72053;SDS011;59918;51.280;7.950;2024-01-16T01:03:51;15.27;;;7.30;;
72053;SDS011;59918;51.280;7.950;2024-01-16T01:06:17;10.93;;;6.88;;
72053;SDS011;59918;51.280;7.950;2024-01-16T01:08:42;17.45;;;7.22;;
72053;SDS011;59918;51.280;7.950;2024-01-16T01:11:07;12.50;;;6.65;;
72053;SDS011;59918;51.280;7.950;2024-01-16T01:13:32;14.32;;;7.50;;
72053;SDS011;59918;51.280;7.950;2024-01-16T01:15:58;14.18;;;7.05;;
72053;SDS011;59918;51.280;7.950;2024-01-16T01:18:23;11.48;;;6.85;;
72053;SDS011;59918;51.280;7.950;2024-01-16T01:20:48;12.27;;;6.55;;
72053;SDS011;59918;51.280;7.950;2024-01-16T01:23:13;14.23;;;6.88;;
72053;SDS011;59918;51.280;7.950;2024-01-16T01:25:39;8.93;;;6.60;;
72053;SDS011;59918;51.280;7.950;2024-01-16T01:28:04;17.63;;;7.80;;
72053;SDS011;59918;51.280;7.950;2024-01-16T01:30:29;11.77;;;6.15;;
72053;SDS011;59918;51.280;7.950;2024-01-16T01:32:54;12.23;;;6.53;;
72053;SDS011;59918;51.280;7.950;2024-01-16T01:35:20;13.15;;;6.90;;
72053;SDS011;59918;51.280;7.950;2024-01-16T01:37:45;20.13;;;7.90;;
72053;SDS011;59918;51.280;7.950;2024-01-16T01:40:10;19.42;;;7.45;;
72053;SDS011;59918;51.280;7.950;2024-01-16T01:42:36;17.42;;;8.20;;
72053;SDS011;59918;51.280;7.950;2024-01-16T01:45:01;19.98;;;7.93;;
72053;SDS011;59918;51.280;7.950;2024-01-16T01:47:26;17.27;;;8.13;;
72053;SDS011;59918;51.280;7.950;2024-01-16T01:49:52;14.57;;;7.85;;
72053;SDS011;59918;51.280;7.950;2024-01-16T01:52:17;16.90;;;8.10;;
72053;SDS011;59918;51.280;7.950;2024-01-16T01:54:43;16.42;;;7.68;;
72053;SDS011;59918;51.280;7.950;2024-01-16T01:57:09;16.83;;;7.97;;
72053;SDS011;59918;51.280;7.950;2024-01-16T01:59:34;17.88;;;8.00;;
72053;SDS011;59918;51.280;7.950;2024-01-16T02:01:59;19.25;;;7.82;;
72053;SDS011;59918;51.280;7.950;2024-01-16T02:04:25;18.85;;;8.55;;
72053;SDS011;59918;51.280;7.950;2024-01-16T02:06:51;20.10;;;7.53;;
72053;SDS011;59918;51.280;7.950;2024-01-16T02:09:16;19.02;;;8.68;;
72053;SDS011;59918;51.280;7.950;2024-01-16T02:11:42;18.48;;;7.65;;
72053;SDS011;59918;51.280;7.950;2024-01-16T02:14:07;12.82;;;6.85;;
72053;SDS011;59918;51.280;7.950;2024-01-16T02:16:37;17.45;;;8.05;;
72053;SDS011;59918;51.280;7.950;2024-01-16T02:19:04;17.98;;;7.78;;
72053;SDS011;59918;51.280;7.950;2024-01-16T02:21:30;17.70;;;8.50;;
72053;SDS011;59918;51.280;7.950;2024-01-16T02:24:07;21.90;;;8.45;;
72053;SDS011;59918;51.280;7.950;2024-01-16T02:26:34;15.25;;;8.23;;
72053;SDS011;59918;51.280;7.950;2024-01-16T02:29:03;18.02;;;9.35;;
72053;SDS011;59918;51.280;7.950;2024-01-16T02:31:28;18.65;;;7.63;;
72053;SDS011;59918;51.280;7.950;2024-01-16T02:33:53;15.13;;;8.13;;
72053;SDS011;59918;51.280;7.950;2024-01-16T02:36:18;19.13;;;8.05;;
72053;SDS011;59918;51.280;7.950;2024-01-16T02:38:44;18.48;;;7.78;;
72053;SDS011;59918;51.280;7.950;2024-01-16T02:41:09;21.30;;;8.30;;
72053;SDS011;59918;51.280;7.950;2024-01-16T02:43:34;18.63;;;7.25;;
72053;SDS011;59918;51.280;7.950;2024-01-16T02:46:00;20.35;;;8.32;;
72053;SDS011;59918;51.280;7.950;2024-01-16T02:48:25;19.33;;;7.15;;
72053;SDS011;59918;51.280;7.950;2024-01-16T02:50:50;21.33;;;7.70;;
72053;SDS011;59918;51.280;7.950;2024-01-16T02:53:15;16.58;;;6.70;;
72053;SDS011;59918;51.280;7.950;2024-01-16T02:55:41;14.18;;;6.72;;
72053;SDS011;59918;51.280;7.950;2024-01-16T02:58:06;16.48;;;6.53;;
72053;SDS011;59918;51.280;7.950;2024-01-16T03:00:31;13.60;;;6.38;;
72053;SDS011;59918;51.280;7.950;2024-01-16T03:02:56;14.18;;;5.95;;
72053;SDS011;59918;51.280;7.950;2024-01-16T03:05:21;11.45;;;6.47;;
72053;SDS011;59918;51.280;7.950;2024-01-16T03:07:47;19.15;;;7.22;;
72053;SDS011;59918;51.280;7.950;2024-01-16T03:10:12;18.75;;;8.27;;
72053;SDS011;59918;51.280;7.950;2024-01-16T03:12:37;11.73;;;6.82;;
72053;SDS011;59918;51.280;7.950;2024-01-16T03:15:03;29.20;;;7.63;;
72053;SDS011;59918;51.280;7.950;2024-01-16T03:17:28;16.73;;;6.75;;
72053;SDS011;59918;51.280;7.950;2024-01-16T03:19:53;17.98;;;7.40;;
72053;SDS011;59918;51.280;7.950;2024-01-16T03:22:18;21.23;;;7.20;;
72053;SDS011;59918;51.280;7.950;2024-01-16T03:24:44;16.98;;;6.28;;
72053;SDS011;59918;51.280;7.950;2024-01-16T03:27:09;19.73;;;6.18;;
72053;SDS011;59918;51.280;7.950;2024-01-16T03:29:34;16.40;;;7.40;;
72053;SDS011;59918;51.280;7.950;2024-01-16T03:32:00;12.15;;;7.05;;
72053;SDS011;59918;51.280;7.950;2024-01-16T03:34:25;15.95;;;7.47;;
72053;SDS011;59918;51.280;7.950;2024-01-16T03:36:50;16.50;;;6.97;;
72053;SDS011;59918;51.280;7.950;2024-01-16T03:39:15;17.70;;;6.75;;
72053;SDS011;59918;51.280;7.950;2024-01-16T03:41:40;16.05;;;6.90;;
72053;SDS011;59918;51.280;7.950;2024-01-16T03:44:06;13.90;;;6.47;;
72053;SDS011;59918;51.280;7.950;2024-01-16T03:46:31;14.75;;;6.07;;
72053;SDS011;59918;51.280;7.950;2024-01-16T03:48:56;14.57;;;6.53;;
72053;SDS011;59918;51.280;7.950;2024-01-16T03:51:21;17.98;;;6.53;;
72053;SDS011;59918;51.280;7.950;2024-01-16T03:53:47;11.43;;;6.47;;
72053;SDS011;59918;51.280;7.950;2024-01-16T03:56:12;12.15;;;6.10;;
72053;SDS011;59918;51.280;7.950;2024-01-16T03:58:39;13.68;;;6.20;;
72053;SDS011;59918;51.280;7.950;2024-01-16T04:01:05;17.50;;;6.10;;
72053;SDS011;59918;51.280;7.950;2024-01-16T04:03:30;20.15;;;6.93;;
72053;SDS011;59918;51.280;7.950;2024-01-16T04:05:55;10.50;;;5.75;;
72053;SDS011;59918;51.280;7.950;2024-01-16T04:08:20;19.35;;;6.07;;
72053;SDS011;59918;51.280;7.950;2024-01-16T04:10:46;11.55;;;6.10;;
72053;SDS011;59918;51.280;7.950;2024-01-16T04:13:11;14.88;;;6.53;;
72053;SDS011;59918;51.280;7.950;2024-01-16T04:15:39;16.00;;;6.32;;
72053;SDS011;59918;51.280;7.950;2024-01-16T04:18:04;17.95;;;7.07;;
72053;SDS011;59918;51.280;7.950;2024-01-16T04:20:30;10.90;;;6.35;;
72053;SDS011;59918;51.280;7.950;2024-01-16T04:22:56;13.35;;;6.78;;
72053;SDS011;59918;51.280;7.950;2024-01-16T04:25:21;14.50;;;6.72;;
72053;SDS011;59918;51.280;7.950;2024-01-16T04:27:46;16.25;;;7.43;;
72053;SDS011;59918;51.280;7.950;2024-01-16T04:30:12;15.57;;;6.93;;
72053;SDS011;59918;51.280;7.950;2024-01-16T04:32:39;12.90;;;6.00;;
72053;SDS011;59918;51.280;7.950;2024-01-16T04:35:05;10.10;;;5.75;;
72053;SDS011;59918;51.280;7.950;2024-01-16T04:37:30;13.27;;;6.35;;
72053;SDS011;59918;51.280;7.950;2024-01-16T04:39:56;17.33;;;6.53;;
72053;SDS011;59918;51.280;7.950;2024-01-16T04:42:22;21.90;;;8.07;;
72053;SDS011;59918;51.280;7.950;2024-01-16T04:44:47;14.32;;;7.35;;
72053;SDS011;59918;51.280;7.950;2024-01-16T04:47:12;21.60;;;7.97;;
72053;SDS011;59918;51.280;7.950;2024-01-16T04:49:37;17.05;;;7.43;;
72053;SDS011;59918;51.280;7.950;2024-01-16T04:52:03;18.38;;;8.60;;
72053;SDS011;59918;51.280;7.950;2024-01-16T04:54:28;16.45;;;8.18;;
72053;SDS011;59918;51.280;7.950;2024-01-16T04:56:53;20.42;;;8.93;;
72053;SDS011;59918;51.280;7.950;2024-01-16T04:59:19;19.98;;;7.65;;
72053;SDS011;59918;51.280;7.950;2024-01-16T05:01:44;17.67;;;8.73;;
72053;SDS011;59918;51.280;7.950;2024-01-16T05:04:09;15.63;;;7.95;;
72053;SDS011;59918;51.280;7.950;2024-01-16T05:06:34;19.55;;;9.20;;
72053;SDS011;59918;51.280;7.950;2024-01-16T05:09:00;16.98;;;8.48;;
72053;SDS011;59918;51.280;7.950;2024-01-16T05:11:25;13.80;;;8.95;;
72053;SDS011;59918;51.280;7.950;2024-01-16T05:13:50;20.88;;;8.68;;
72053;SDS011;59918;51.280;7.950;2024-01-16T05:16:15;13.05;;;7.90;;
72053;SDS011;59918;51.280;7.950;2024-01-16T05:18:43;23.45;;;9.13;;
72053;SDS011;59918;51.280;7.950;2024-01-16T05:21:09;17.55;;;9.00;;
72053;SDS011;59918;51.280;7.950;2024-01-16T05:23:34;21.30;;;8.73;;
72053;SDS011;59918;51.280;7.950;2024-01-16T05:25:59;19.38;;;9.77;;
72053;SDS011;59918;51.280;7.950;2024-01-16T05:28:24;21.15;;;9.10;;
72053;SDS011;59918;51.280;7.950;2024-01-16T05:30:50;20.48;;;11.93;;
72053;SDS011;59918;51.280;7.950;2024-01-16T05:33:15;23.08;;;12.40;;
72053;SDS011;59918;51.280;7.950;2024-01-16T05:35:40;20.45;;;9.98;;
72053;SDS011;59918;51.280;7.950;2024-01-16T05:38:06;20.98;;;8.77;;
72053;SDS011;59918;51.280;7.950;2024-01-16T05:40:31;22.83;;;10.85;;
72053;SDS011;59918;51.280;7.950;2024-01-16T05:42:56;15.48;;;8.38;;
72053;SDS011;59918;51.280;7.950;2024-01-16T05:45:22;18.42;;;9.15;;
72053;SDS011;59918;51.280;7.950;2024-01-16T05:47:47;18.38;;;9.23;;
72053;SDS011;59918;51.280;7.950;2024-01-16T05:50:12;17.33;;;8.93;;
72053;SDS011;59918;51.280;7.950;2024-01-16T05:52:38;14.10;;;7.70;;
72053;SDS011;59918;51.280;7.950;2024-01-16T05:55:03;20.02;;;9.50;;
72053;SDS011;59918;51.280;7.950;2024-01-16T05:57:29;14.02;;;7.47;;
72053;SDS011;59918;51.280;7.950;2024-01-16T05:59:54;18.00;;;7.30;;
72053;SDS011;59918;51.280;7.950;2024-01-16T06:02:20;17.48;;;8.27;;
72053;SDS011;59918;51.280;7.950;2024-01-16T06:04:45;14.50;;;8.50;;
72053;SDS011;59918;51.280;7.950;2024-01-16T06:07:10;10.52;;;6.65;;
72053;SDS011;59918;51.280;7.950;2024-01-16T06:09:38;16.60;;;7.72;;
72053;SDS011;59918;51.280;7.950;2024-01-16T06:12:04;12.73;;;7.07;;
72053;SDS011;59918;51.280;7.950;2024-01-16T06:14:29;13.50;;;7.45;;
72053;SDS011;59918;51.280;7.950;2024-01-16T06:16:55;9.82;;;6.22;;
72053;SDS011;59918;51.280;7.950;2024-01-16T06:19:20;14.43;;;7.57;;
72053;SDS011;59918;51.280;7.950;2024-01-16T06:21:45;17.95;;;7.53;;
72053;SDS011;59918;51.280;7.950;2024-01-16T06:24:13;11.00;;;6.85;;
72053;SDS011;59918;51.280;7.950;2024-01-16T06:26:38;13.00;;;7.30;;
72053;SDS011;59918;51.280;7.950;2024-01-16T06:29:04;15.10;;;7.95;;
72053;SDS011;59918;51.280;7.950;2024-01-16T06:31:29;12.45;;;6.82;;
72053;SDS011;59918;51.280;7.950;2024-01-16T06:33:54;12.43;;;7.88;;
72053;SDS011;59918;51.280;7.950;2024-01-16T06:36:19;14.98;;;7.22;;
72053;SDS011;59918;51.280;7.950;2024-01-16T06:38:45;17.50;;;7.28;;
72053;SDS011;59918;51.280;7.950;2024-01-16T06:41:10;12.32;;;6.97;;
72053;SDS011;59918;51.280;7.950;2024-01-16T06:43:35;12.63;;;6.97;;
72053;SDS011;59918;51.280;7.950;2024-01-16T06:46:00;13.27;;;6.45;;
72053;SDS011;59918;51.280;7.950;2024-01-16T06:48:26;10.88;;;6.53;;
72053;SDS011;59918;51.280;7.950;2024-01-16T06:50:51;16.30;;;7.85;;
72053;SDS011;59918;51.280;7.950;2024-01-16T06:53:16;15.43;;;7.47;;
72053;SDS011;59918;51.280;7.950;2024-01-16T06:55:42;16.33;;;6.75;;
72053;SDS011;59918;51.280;7.950;2024-01-16T06:58:07;13.70;;;6.82;;
72053;SDS011;59918;51.280;7.950;2024-01-16T07:00:32;11.55;;;6.50;;
72053;SDS011;59918;51.280;7.950;2024-01-16T07:02:57;11.60;;;6.70;;
72053;SDS011;59918;51.280;7.950;2024-01-16T07:05:23;10.20;;;6.18;;
72053;SDS011;59918;51.280;7.950;2024-01-16T07:07:48;11.63;;;6.95;;
72053;SDS011;59918;51.280;7.950;2024-01-16T07:10:14;9.27;;;6.60;;
72053;SDS011;59918;51.280;7.950;2024-01-16T07:12:39;15.20;;;7.25;;
72053;SDS011;59918;51.280;7.950;2024-01-16T07:15:04;21.13;;;7.38;;
72053;SDS011;59918;51.280;7.950;2024-01-16T07:17:30;11.70;;;6.70;;
72053;SDS011;59918;51.280;7.950;2024-01-16T07:19:55;16.73;;;6.65;;
72053;SDS011;59918;51.280;7.950;2024-01-16T07:22:21;9.93;;;6.55;;
72053;SDS011;59918;51.280;7.950;2024-01-16T07:24:46;17.02;;;6.70;;
72053;SDS011;59918;51.280;7.950;2024-01-16T07:27:11;10.82;;;7.10;;
72053;SDS011;59918;51.280;7.950;2024-01-16T07:29:36;14.05;;;7.40;;
72053;SDS011;59918;51.280;7.950;2024-01-16T07:32:03;13.73;;;7.22;;
72053;SDS011;59918;51.280;7.950;2024-01-16T07:34:29;11.75;;;7.15;;
72053;SDS011;59918;51.280;7.950;2024-01-16T07:36:54;10.60;;;6.63;;
72053;SDS011;59918;51.280;7.950;2024-01-16T07:39:21;11.55;;;6.35;;
72053;SDS011;59918;51.280;7.950;2024-01-16T07:41:47;12.68;;;6.68;;
72053;SDS011;59918;51.280;7.950;2024-01-16T07:44:12;14.52;;;6.38;;
72053;SDS011;59918;51.280;7.950;2024-01-16T07:46:37;17.20;;;9.02;;
72053;SDS011;59918;51.280;7.950;2024-01-16T07:49:02;15.05;;;7.22;;
72053;SDS011;59918;51.280;7.950;2024-01-16T07:51:28;15.80;;;7.18;;
72053;SDS011;59918;51.280;7.950;2024-01-16T07:54:04;10.15;;;6.45;;
72053;SDS011;59918;51.280;7.950;2024-01-16T07:56:30;16.42;;;7.80;;
72053;SDS011;59918;51.280;7.950;2024-01-16T07:58:56;15.35;;;7.50;;
72053;SDS011;59918;51.280;7.950;2024-01-16T08:01:21;11.95;;;7.20;;
72053;SDS011;59918;51.280;7.950;2024-01-16T08:03:46;16.52;;;8.10;;
72053;SDS011;59918;51.280;7.950;2024-01-16T08:06:13;17.45;;;7.57;;
72053;SDS011;59918;51.280;7.950;2024-01-16T08:08:38;14.48;;;7.35;;
72053;SDS011;59918;51.280;7.950;2024-01-16T08:11:03;12.60;;;6.68;;
72053;SDS011;59918;51.280;7.950;2024-01-16T08:13:29;12.68;;;7.18;;
72053;SDS011;59918;51.280;7.950;2024-01-16T08:15:54;19.58;;;8.20;;
72053;SDS011;59918;51.280;7.950;2024-01-16T08:18:19;13.50;;;7.45;;
72053;SDS011;59918;51.280;7.950;2024-01-16T08:20:44;14.82;;;7.45;;
72053;SDS011;59918;51.280;7.950;2024-01-16T08:23:10;11.98;;;7.50;;
72053;SDS011;59918;51.280;7.950;2024-01-16T08:25:35;15.95;;;7.57;;
72053;SDS011;59918;51.280;7.950;2024-01-16T08:28:00;17.20;;;8.05;;
72053;SDS011;59918;51.280;7.950;2024-01-16T08:30:25;20.48;;;8.30;;
72053;SDS011;59918;51.280;7.950;2024-01-16T08:32:51;15.25;;;8.05;;
72053;SDS011;59918;51.280;7.950;2024-01-16T08:35:16;17.85;;;7.60;;
72053;SDS011;59918;51.280;7.950;2024-01-16T08:37:41;14.55;;;7.35;;
72053;SDS011;59918;51.280;7.950;2024-01-16T08:40:06;40.03;;;15.23;;
72053;SDS011;59918;51.280;7.950;2024-01-16T08:42:32;14.98;;;7.70;;
72053;SDS011;59918;51.280;7.950;2024-01-16T08:44:57;17.98;;;7.25;;
72053;SDS011;59918;51.280;7.950;2024-01-16T08:47:22;18.05;;;6.97;;
72053;SDS011;59918;51.280;7.950;2024-01-16T08:49:48;10.25;;;6.82;;
72053;SDS011;59918;51.280;7.950;2024-01-16T08:52:13;14.05;;;7.20;;
72053;SDS011;59918;51.280;7.950;2024-01-16T08:54:38;20.65;;;7.65;;
72053;SDS011;59918;51.280;7.950;2024-01-16T08:57:03;16.65;;;8.38;;
72053;SDS011;59918;51.280;7.950;2024-01-16T08:59:29;17.88;;;7.65;;
72053;SDS011;59918;51.280;7.950;2024-01-16T09:01:54;18.65;;;8.57;;
72053;SDS011;59918;51.280;7.950;2024-01-16T09:04:19;23.30;;;10.55;;
72053;SDS011;59918;51.280;7.950;2024-01-16T09:06:45;18.38;;;9.40;;
72053;SDS011;59918;51.280;7.950;2024-01-16T09:09:10;23.88;;;10.35;;
72053;SDS011;59918;51.280;7.950;2024-01-16T09:11:35;19.17;;;9.23;;
72053;SDS011;59918;51.280;7.950;2024-01-16T09:14:00;22.67;;;9.25;;
72053;SDS011;59918;51.280;7.950;2024-01-16T09:16:26;18.50;;;8.23;;
72053;SDS011;59918;51.280;7.950;2024-01-16T09:18:51;16.05;;;8.68;;
72053;SDS011;59918;51.280;7.950;2024-01-16T09:21:16;14.70;;;8.00;;
72053;SDS011;59918;51.280;7.950;2024-01-16T09:23:41;20.83;;;8.82;;
72053;SDS011;59918;51.280;7.950;2024-01-16T09:26:07;16.60;;;7.60;;
72053;SDS011;59918;51.280;7.950;2024-01-16T09:28:32;15.68;;;7.70;;
72053;SDS011;59918;51.280;7.950;2024-01-16T09:30:57;18.38;;;7.75;;
72053;SDS011;59918;51.280;7.950;2024-01-16T09:33:23;13.82;;;7.13;;
72053;SDS011;59918;51.280;7.950;2024-01-16T09:35:48;14.20;;;6.40;;
72053;SDS011;59918;51.280;7.950;2024-01-16T09:38:13;19.95;;;7.30;;
72053;SDS011;59918;51.280;7.950;2024-01-16T09:40:39;10.95;;;6.40;;
72053;SDS011;59918;51.280;7.950;2024-01-16T09:43:04;11.52;;;7.03;;
72053;SDS011;59918;51.280;7.950;2024-01-16T09:45:30;17.30;;;7.05;;
72053;SDS011;59918;51.280;7.950;2024-01-16T09:47:55;8.23;;;5.53;;
72053;SDS011;59918;51.280;7.950;2024-01-16T09:50:22;13.38;;;6.10;;
72053;SDS011;59918;51.280;7.950;2024-01-16T09:52:48;14.70;;;5.72;;
72053;SDS011;59918;51.280;7.950;2024-01-16T09:55:13;9.60;;;5.25;;
72053;SDS011;59918;51.280;7.950;2024-01-16T09:57:41;11.95;;;4.88;;
72053;SDS011;59918;51.280;7.950;2024-01-16T10:00:11;10.67;;;5.00;;
72053;SDS011;59918;51.280;7.950;2024-01-16T10:02:38;17.92;;;6.38;;
72053;SDS011;59918;51.280;7.950;2024-01-16T10:05:04;10.38;;;5.07;;
72053;SDS011;59918;51.280;7.950;2024-01-16T10:07:30;10.32;;;6.40;;
72053;SDS011;59918;51.280;7.950;2024-01-16T10:09:57;14.45;;;6.18;;
72053;SDS011;59918;51.280;7.950;2024-01-16T10:12:22;10.93;;;5.47;;
72053;SDS011;59918;51.280;7.950;2024-01-16T10:14:47;15.43;;;5.32;;
72053;SDS011;59918;51.280;7.950;2024-01-16T10:17:13;9.23;;;5.10;;
72053;SDS011;59918;51.280;7.950;2024-01-16T10:19:51;7.15;;;4.57;;
72053;SDS011;59918;51.280;7.950;2024-01-16T10:22:21;9.18;;;4.30;;
72053;SDS011;59918;51.280;7.950;2024-01-16T10:24:47;11.27;;;4.80;;
72053;SDS011;59918;51.280;7.950;2024-01-16T10:27:15;11.77;;;4.78;;
72053;SDS011;59918;51.280;7.950;2024-01-16T10:29:54;9.30;;;4.65;;
72053;SDS011;59918;51.280;7.950;2024-01-16T10:32:30;9.57;;;4.05;;
72053;SDS011;59918;51.280;7.950;2024-01-16T10:37:51;11.25;;;3.80;;
72053;SDS011;59918;51.280;7.950;2024-01-16T10:40:18;10.27;;;3.60;;
72053;SDS011;59918;51.280;7.950;2024-01-16T10:43:01;10.27;;;3.40;;
72053;SDS011;59918;51.280;7.950;2024-01-16T10:45:27;10.75;;;3.65;;
72053;SDS011;59918;51.280;7.950;2024-01-16T10:50:27;7.93;;;3.03;;
72053;SDS011;59918;51.280;7.950;2024-01-16T10:52:52;4.05;;;2.45;;
72053;SDS011;59918;51.280;7.950;2024-01-16T10:55:21;4.80;;;3.00;;
72053;SDS011;59918;51.280;7.950;2024-01-16T10:57:53;13.63;;;3.08;;
72053;SDS011;59918;51.280;7.950;2024-01-16T11:00:21;9.45;;;2.65;;
72053;SDS011;59918;51.280;7.950;2024-01-16T11:05:12;7.63;;;2.40;;
72053;SDS011;59918;51.280;7.950;2024-01-16T11:07:39;12.43;;;2.78;;
72053;SDS011;59918;51.280;7.950;2024-01-16T11:10:06;8.43;;;2.67;;
72053;SDS011;59918;51.280;7.950;2024-01-16T11:12:32;9.05;;;3.00;;
72053;SDS011;59918;51.280;7.950;2024-01-16T11:14:59;13.15;;;2.70;;
72053;SDS011;59918;51.280;7.950;2024-01-16T11:17:25;9.77;;;2.10;;
72053;SDS011;59918;51.280;7.950;2024-01-16T11:19:50;6.07;;;2.25;;
72053;SDS011;59918;51.280;7.950;2024-01-16T11:22:16;9.07;;;2.28;;
72053;SDS011;59918;51.280;7.950;2024-01-16T11:24:43;6.45;;;1.73;;
72053;SDS011;59918;51.280;7.950;2024-01-16T11:27:08;6.88;;;2.13;;
72053;SDS011;59918;51.280;7.950;2024-01-16T11:29:45;8.63;;;2.08;;
72053;SDS011;59918;51.280;7.950;2024-01-16T11:32:32;9.65;;;2.70;;
72053;SDS011;59918;51.280;7.950;2024-01-16T11:35:01;9.70;;;2.05;;
72053;SDS011;59918;51.280;7.950;2024-01-16T11:37:30;9.07;;;2.58;;
72053;SDS011;59918;51.280;7.950;2024-01-16T11:42:43;6.30;;;2.20;;
72053;SDS011;59918;51.280;7.950;2024-01-16T11:50:39;4.38;;;2.13;;
72053;SDS011;59918;51.280;7.950;2024-01-16T11:53:05;10.00;;;2.28;;
72053;SDS011;59918;51.280;7.950;2024-01-16T11:55:45;10.48;;;2.40;;
72053;SDS011;59918;51.280;7.950;2024-01-16T12:01:08;8.48;;;2.28;;
72053;SDS011;59918;51.280;7.950;2024-01-16T12:03:34;11.90;;;2.30;;
72053;SDS011;59918;51.280;7.950;2024-01-16T12:06:00;5.82;;;2.42;;
72053;SDS011;59918;51.280;7.950;2024-01-16T12:08:26;5.22;;;2.10;;
72053;SDS011;59918;51.280;7.950;2024-01-16T12:10:51;4.47;;;2.13;;
72053;SDS011;59918;51.280;7.950;2024-01-16T12:13:17;6.45;;;2.92;;
72053;SDS011;59918;51.280;7.950;2024-01-16T12:15:42;7.38;;;2.38;;
72053;SDS011;59918;51.280;7.950;2024-01-16T12:18:08;4.60;;;2.40;;
72053;SDS011;59918;51.280;7.950;2024-01-16T12:20:36;9.38;;;2.60;;
72053;SDS011;59918;51.280;7.950;2024-01-16T12:23:08;7.13;;;2.95;;
72053;SDS011;59918;51.280;7.950;2024-01-16T12:25:33;15.50;;;2.70;;
72053;SDS011;59918;51.280;7.950;2024-01-16T12:28:03;9.55;;;3.60;;
72053;SDS011;59918;51.280;7.950;2024-01-16T12:30:30;8.27;;;2.63;;
72053;SDS011;59918;51.280;7.950;2024-01-16T12:33:06;6.20;;;2.10;;
72053;SDS011;59918;51.280;7.950;2024-01-16T12:38:00;6.78;;;2.40;;
72053;SDS011;59918;51.280;7.950;2024-01-16T12:40:27;3.63;;;2.33;;
72053;SDS011;59918;51.280;7.950;2024-01-16T12:42:53;5.50;;;2.05;;
72053;SDS011;59918;51.280;7.950;2024-01-16T12:45:18;7.38;;;2.28;;
72053;SDS011;59918;51.280;7.950;2024-01-16T12:47:44;5.28;;;2.95;;
72053;SDS011;59918;51.280;7.950;2024-01-16T12:50:21;10.57;;;2.50;;
72053;SDS011;59918;51.280;7.950;2024-01-16T12:52:48;7.38;;;3.85;;
72053;SDS011;59918;51.280;7.950;2024-01-16T12:55:25;5.10;;;2.85;;
72053;SDS011;59918;51.280;7.950;2024-01-16T12:58:10;10.57;;;2.90;;
72053;SDS011;59918;51.280;7.950;2024-01-16T13:00:45;6.35;;;2.33;;
72053;SDS011;59918;51.280;7.950;2024-01-16T13:03:16;11.02;;;3.75;;
72053;SDS011;59918;51.280;7.950;2024-01-16T13:05:41;15.38;;;3.65;;
72053;SDS011;59918;51.280;7.950;2024-01-16T13:08:07;10.35;;;3.22;;
72053;SDS011;59918;51.280;7.950;2024-01-16T13:10:32;7.30;;;2.70;;
72053;SDS011;59918;51.280;7.950;2024-01-16T13:15:38;6.53;;;2.63;;
72053;SDS011;59918;51.280;7.950;2024-01-16T13:18:03;7.45;;;2.97;;
72053;SDS011;59918;51.280;7.950;2024-01-16T13:20:29;11.10;;;2.92;;
72053;SDS011;59918;51.280;7.950;2024-01-16T13:22:56;9.35;;;2.95;;
72053;SDS011;59918;51.280;7.950;2024-01-16T13:25:22;6.45;;;2.97;;
72053;SDS011;59918;51.280;7.950;2024-01-16T13:27:47;8.75;;;2.50;;
72053;SDS011;59918;51.280;7.950;2024-01-16T13:30:12;10.02;;;3.20;;
72053;SDS011;59918;51.280;7.950;2024-01-16T13:32:38;11.90;;;3.25;;
72053;SDS011;59918;51.280;7.950;2024-01-16T13:35:03;9.07;;;3.17;;
72053;SDS011;59918;51.280;7.950;2024-01-16T13:37:29;6.75;;;2.90;;
72053;SDS011;59918;51.280;7.950;2024-01-16T13:39:54;6.72;;;2.95;;
72053;SDS011;59918;51.280;7.950;2024-01-16T13:42:19;6.40;;;2.67;;
72053;SDS011;59918;51.280;7.950;2024-01-16T13:44:45;12.52;;;2.45;;
72053;SDS011;59918;51.280;7.950;2024-01-16T13:47:10;8.40;;;2.90;;
72053;SDS011;59918;51.280;7.950;2024-01-16T13:49:35;7.80;;;2.95;;
72053;SDS011;59918;51.280;7.950;2024-01-16T13:52:00;9.52;;;3.53;;
72053;SDS011;59918;51.280;7.950;2024-01-16T13:54:26;9.02;;;3.20;;
72053;SDS011;59918;51.280;7.950;2024-01-16T13:56:51;5.78;;;2.83;;
72053;SDS011;59918;51.280;7.950;2024-01-16T13:59:16;5.88;;;2.90;;
72053;SDS011;59918;51.280;7.950;2024-01-16T14:01:42;6.47;;;2.65;;
72053;SDS011;59918;51.280;7.950;2024-01-16T14:04:07;4.43;;;2.22;;
72053;SDS011;59918;51.280;7.950;2024-01-16T14:06:32;4.65;;;2.45;;
72053;SDS011;59918;51.280;7.950;2024-01-16T14:08:57;8.40;;;3.05;;
72053;SDS011;59918;51.280;7.950;2024-01-16T14:11:23;10.55;;;2.92;;
72053;SDS011;59918;51.280;7.950;2024-01-16T14:13:48;8.40;;;2.55;;
72053;SDS011;59918;51.280;7.950;2024-01-16T14:16:13;6.45;;;2.70;;
72053;SDS011;59918;51.280;7.950;2024-01-16T14:18:38;11.60;;;2.75;;
72053;SDS011;59918;51.280;7.950;2024-01-16T14:21:04;9.73;;;2.78;;
72053;SDS011;59918;51.280;7.950;2024-01-16T14:23:29;12.18;;;2.63;;
72053;SDS011;59918;51.280;7.950;2024-01-16T14:25:54;7.72;;;2.33;;
72053;SDS011;59918;51.280;7.950;2024-01-16T14:28:19;8.77;;;2.85;;
72053;SDS011;59918;51.280;7.950;2024-01-16T14:30:45;6.38;;;3.30;;
72053;SDS011;59918;51.280;7.950;2024-01-16T14:33:10;9.50;;;2.78;;
72053;SDS011;59918;51.280;7.950;2024-01-16T14:35:35;7.13;;;2.35;;
72053;SDS011;59918;51.280;7.950;2024-01-16T14:38:01;6.97;;;2.97;;
72053;SDS011;59918;51.280;7.950;2024-01-16T14:40:26;7.35;;;2.90;;
72053;SDS011;59918;51.280;7.950;2024-01-16T14:42:51;11.05;;;2.78;;
72053;SDS011;59918;51.280;7.950;2024-01-16T14:45:17;9.95;;;3.25;;
72053;SDS011;59918;51.280;7.950;2024-01-16T14:47:42;11.77;;;2.80;;
72053;SDS011;59918;51.280;7.950;2024-01-16T14:50:08;6.82;;;3.10;;
72053;SDS011;59918;51.280;7.950;2024-01-16T14:52:33;14.75;;;3.38;;
72053;SDS011;59918;51.280;7.950;2024-01-16T14:54:59;8.75;;;3.35;;